createdAt,value
2018-03-28T00:02:12.762Z,9.24
2018-03-28T00:04:41.676Z,9.25
2018-03-28T00:07:10.749Z,9.31
2018-03-28T00:09:39.891Z,9.31
2018-03-28T00:12:08.798Z,9.32
2018-03-28T00:14:37.684Z,9.31
2018-03-28T00:17:06.840Z,9.36
2018-03-28T00:19:36.057Z,9.37
2018-03-28T00:22:05.442Z,9.43
2018-03-28T00:24:34.334Z,9.36
2018-03-28T00:27:03.952Z,9.36
2018-03-28T00:29:32.819Z,9.35
2018-03-28T00:32:03.422Z,9.30
2018-03-28T00:34:32.956Z,9.30
2018-03-28T00:37:01.926Z,9.32
2018-03-28T00:39:30.770Z,9.36
2018-03-28T00:41:59.945Z,9.42
2018-03-28T00:44:28.776Z,9.40
2018-03-28T00:46:57.732Z,9.43
2018-03-28T00:49:26.942Z,9.50
2018-03-28T00:51:55.852Z,9.50
2018-03-28T00:54:24.771Z,9.51
2018-03-28T00:56:54.119Z,9.49
2018-03-28T00:59:23.080Z,9.47
2018-03-28T01:01:51.966Z,9.54
2018-03-28T01:04:21.482Z,9.56
2018-03-28T01:06:50.363Z,9.60
2018-03-28T01:09:19.260Z,9.56
2018-03-28T01:11:48.657Z,9.55
2018-03-28T01:14:17.659Z,9.56
2018-03-28T01:16:46.515Z,9.59
2018-03-28T01:19:16.856Z,9.62
2018-03-28T01:21:46.162Z,9.67
2018-03-28T01:24:15.184Z,9.62
2018-03-28T01:26:44.071Z,9.66
2018-03-28T01:29:13.130Z,9.64
2018-03-28T01:31:42.471Z,9.72
2018-03-28T01:34:11.380Z,9.77
2018-03-28T01:36:40.336Z,9.75
2018-03-28T01:39:09.295Z,9.73
2018-03-28T01:41:38.223Z,9.79
2018-03-28T01:44:07.517Z,9.75
2018-03-28T01:46:36.429Z,9.80
2018-03-28T01:49:05.364Z,9.81
2018-03-28T01:51:34.337Z,9.85
2018-03-28T01:54:03.788Z,9.86
2018-03-28T01:56:32.715Z,9.86
2018-03-28T01:59:02.843Z,9.89
2018-03-28T02:01:31.770Z,9.92
2018-03-28T02:04:00.747Z,9.95
2018-03-28T02:06:29.909Z,10.01
2018-03-28T02:08:58.924Z,10.00
2018-03-28T02:11:27.892Z,10.03
2018-03-28T02:13:57.359Z,10.03
2018-03-28T02:16:26.264Z,9.99
2018-03-28T02:18:55.175Z,9.98
2018-03-28T02:21:24.376Z,9.96
2018-03-28T02:23:53.275Z,9.91
2018-03-28T02:26:22.170Z,9.93
2018-03-28T02:28:51.463Z,9.91
2018-03-28T02:31:20.356Z,9.93
2018-03-28T02:33:49.350Z,9.97
2018-03-28T02:36:18.781Z,9.95
2018-03-28T02:38:47.694Z,9.97
2018-03-28T02:41:16.734Z,10.01
2018-03-28T02:43:47.035Z,9.95
2018-03-28T02:46:15.969Z,9.91
2018-03-28T02:48:44.923Z,9.94
2018-03-28T02:51:14.813Z,9.94
2018-03-28T02:53:43.726Z,10.01
2018-03-28T02:56:12.591Z,9.98
2018-03-28T02:58:41.486Z,9.97
2018-03-28T03:01:10.516Z,10.01
2018-03-28T03:03:39.495Z,10.00
2018-03-28T03:06:08.896Z,9.99
2018-03-28T03:08:37.820Z,10.07
2018-03-28T03:11:06.749Z,10.07
2018-03-28T03:13:36.234Z,10.10
2018-03-28T03:16:05.702Z,10.19
2018-03-28T03:18:34.665Z,10.20
2018-03-28T03:21:04.013Z,10.18
2018-03-28T03:23:32.943Z,10.19
2018-03-28T03:26:03.598Z,10.26
2018-03-28T03:28:32.771Z,10.28
2018-03-28T03:31:01.807Z,10.30
2018-03-28T03:33:30.714Z,10.34
2018-03-28T03:36:00.618Z,10.34
2018-03-28T03:38:29.560Z,10.36
2018-03-28T03:40:58.444Z,10.34
2018-03-28T03:43:27.660Z,10.34
2018-03-28T03:45:57.111Z,10.33
2018-03-28T03:48:26.028Z,10.32
2018-03-28T03:50:55.261Z,10.30
2018-03-28T03:53:24.176Z,10.32
2018-03-28T03:55:53.129Z,10.39
2018-03-28T03:58:22.431Z,10.35
2018-03-28T04:00:51.419Z,10.36
2018-03-28T04:03:20.287Z,10.40
2018-03-28T04:05:50.558Z,10.41
2018-03-28T04:08:19.551Z,10.43
2018-03-28T04:10:48.498Z,10.44
2018-03-28T04:13:17.822Z,10.44
2018-03-28T04:15:46.717Z,10.48
2018-03-28T04:18:15.888Z,10.48
2018-03-28T04:20:45.229Z,10.49
2018-03-28T04:23:14.220Z,10.50
2018-03-28T04:25:43.148Z,10.58
2018-03-28T04:28:12.646Z,10.59
2018-03-28T04:30:41.580Z,10.60
2018-03-28T04:33:10.511Z,10.62
2018-03-28T04:35:39.947Z,10.63
2018-03-28T04:38:08.887Z,10.64
2018-03-28T04:40:37.812Z,10.71
2018-03-28T04:43:07.178Z,10.73
2018-03-28T04:45:36.122Z,10.74
2018-03-28T04:48:05.629Z,10.75
2018-03-28T04:50:34.928Z,10.79
2018-03-28T04:53:04.263Z,10.85
2018-03-28T04:55:33.371Z,10.94
2018-03-28T04:58:03.388Z,11.00
2018-03-28T05:00:32.782Z,11.05
2018-03-28T05:03:02.190Z,11.05
2018-03-28T05:05:31.468Z,11.08
2018-03-28T05:08:00.381Z,11.08
2018-03-28T05:10:29.292Z,11.10
2018-03-28T05:12:58.683Z,11.12
2018-03-28T05:15:27.639Z,11.15
2018-03-28T05:17:56.540Z,11.13
2018-03-28T05:20:25.845Z,11.14
2018-03-28T05:22:54.750Z,11.18
2018-03-28T05:25:23.677Z,11.19
2018-03-28T05:27:52.926Z,11.24
2018-03-28T05:30:21.848Z,11.22
2018-03-28T05:32:50.772Z,11.26
2018-03-28T05:35:20.062Z,11.16
2018-03-28T05:37:48.984Z,11.17
2018-03-28T05:40:17.914Z,11.15
2018-03-28T05:42:47.274Z,11.18
2018-03-28T05:45:17.005Z,11.16
2018-03-28T05:47:45.924Z,11.18
2018-03-28T05:50:15.392Z,11.16
2018-03-28T05:52:44.272Z,11.22
2018-03-28T05:55:13.139Z,11.18
2018-03-28T05:57:42.434Z,11.20
2018-03-28T06:00:11.376Z,11.18
2018-03-28T06:02:40.306Z,11.22
2018-03-28T06:05:09.632Z,11.27
2018-03-28T06:07:38.835Z,11.23
2018-03-28T06:10:07.768Z,11.23
2018-03-28T06:12:38.068Z,11.18
2018-03-28T06:15:07.010Z,11.20
2018-03-28T06:17:35.919Z,11.20
2018-03-28T06:20:06.761Z,11.24
2018-03-28T06:22:35.654Z,11.27
2018-03-28T06:25:04.587Z,11.29
2018-03-28T06:27:33.516Z,11.30
2018-03-28T06:30:04.311Z,11.31
2018-03-28T06:34:03.127Z,11.41
2018-03-28T06:36:32.062Z,11.39
2018-03-28T06:39:00.997Z,11.37
2018-03-28T06:41:30.632Z,11.27
2018-03-28T06:43:59.584Z,11.26
2018-03-28T06:46:28.513Z,11.24
2018-03-28T06:48:57.813Z,11.21
2018-03-28T06:51:26.733Z,11.28
2018-03-28T06:53:55.638Z,11.21
2018-03-28T06:56:24.971Z,11.29
2018-03-28T06:58:53.870Z,11.32
2018-03-28T07:01:22.988Z,11.39
2018-03-28T07:03:52.231Z,11.41
2018-03-28T07:06:21.848Z,11.48
2018-03-28T07:08:50.865Z,11.44
2018-03-28T07:11:20.288Z,11.33
2018-03-28T07:13:49.210Z,11.25
2018-03-28T07:16:18.832Z,11.21
2018-03-28T07:18:47.726Z,11.30
2018-03-28T07:21:16.807Z,11.30
2018-03-28T07:23:46.154Z,11.40
2018-03-28T07:26:15.241Z,11.30
2018-03-28T07:28:44.181Z,11.41
2018-03-28T07:31:13.471Z,11.46
2018-03-28T07:33:42.439Z,11.54
2018-03-28T07:36:11.377Z,11.55
2018-03-28T07:38:40.646Z,11.42
2018-03-28T07:41:09.613Z,11.57
2018-03-28T07:43:38.581Z,11.49
2018-03-28T07:46:08.815Z,11.78
2018-03-28T07:48:37.806Z,11.73
2018-03-28T07:51:06.728Z,11.84
2018-03-28T07:53:36.038Z,11.84
2018-03-28T07:56:07.039Z,11.89
2018-03-28T07:58:35.992Z,11.81
2018-03-28T08:01:05.005Z,11.91
2018-03-28T08:03:33.897Z,12.02
2018-03-28T08:06:04.464Z,12.05
2018-03-28T08:08:33.486Z,11.83
2018-03-28T08:11:03.371Z,11.82
2018-03-28T08:13:32.913Z,11.96
2018-03-28T08:16:03.728Z,12.13
2018-03-28T08:18:33.169Z,12.12
2018-03-28T08:21:02.412Z,12.28
2018-03-28T08:23:31.326Z,12.37
2018-03-28T08:26:00.623Z,12.26
2018-03-28T08:28:29.642Z,12.28
2018-03-28T08:30:58.592Z,12.26
2018-03-28T08:33:27.813Z,12.33
2018-03-28T08:35:56.728Z,12.58
2018-03-28T08:38:25.687Z,12.28
2018-03-28T08:40:55.019Z,12.43
2018-03-28T08:43:23.999Z,12.52
2018-03-28T08:45:53.112Z,12.47
2018-03-28T08:48:22.355Z,12.60
2018-03-28T08:50:51.347Z,12.26
2018-03-28T08:53:20.270Z,12.10
2018-03-28T08:55:49.473Z,12.15
2018-03-28T08:58:18.486Z,12.11
2018-03-28T09:00:47.436Z,12.03
2018-03-28T09:03:16.585Z,11.97
2018-03-28T09:05:45.594Z,11.96
2018-03-28T09:08:14.923Z,11.89
2018-03-28T09:10:43.969Z,11.83
2018-03-28T09:13:12.873Z,11.76
2018-03-28T09:15:42.185Z,11.76
2018-03-28T09:18:11.127Z,11.79
2018-03-28T09:20:40.081Z,11.82
2018-03-28T09:23:09.292Z,11.81
2018-03-28T09:25:38.205Z,11.95
2018-03-28T09:28:07.116Z,11.96
2018-03-28T09:30:36.334Z,11.86
2018-03-28T09:33:05.382Z,11.77
2018-03-28T09:35:35.553Z,11.81
2018-03-28T09:38:05.683Z,11.81
2018-03-28T09:40:34.596Z,11.81
2018-03-28T09:43:03.624Z,11.86
2018-03-28T09:45:32.876Z,11.88
2018-03-28T09:48:02.033Z,11.91
2018-03-28T09:50:30.980Z,12.23
2018-03-28T09:52:59.911Z,12.36
2018-03-28T09:55:28.836Z,12.67
2018-03-28T09:57:57.786Z,12.77
2018-03-28T10:00:28.396Z,12.97
2018-03-28T10:03:01.628Z,13.53
2018-03-28T10:05:34.649Z,14.04
2018-03-28T10:08:05.014Z,14.16
2018-03-28T10:10:34.213Z,14.49
2018-03-28T10:13:04.210Z,14.81
2018-03-28T10:15:33.202Z,14.73
2018-03-28T10:18:02.822Z,14.62
2018-03-28T10:20:32.038Z,14.78
2018-03-28T10:23:00.932Z,15.19
2018-03-28T10:25:29.875Z,15.25
2018-03-28T10:27:59.043Z,15.05
2018-03-28T10:30:28.039Z,14.81
2018-03-28T10:32:56.992Z,14.48
2018-03-28T10:35:25.933Z,14.47
2018-03-28T10:37:54.877Z,14.43
2018-03-28T10:40:25.199Z,14.41
2018-03-28T10:42:54.094Z,14.18
2018-03-28T10:45:23.059Z,14.21
2018-03-28T10:47:51.981Z,14.58
2018-03-28T10:50:20.985Z,14.82
2018-03-28T10:52:50.499Z,14.59
2018-03-28T10:55:19.446Z,14.64
2018-03-28T10:57:48.400Z,14.33
2018-03-28T11:00:18.255Z,14.59
2018-03-28T11:02:47.236Z,14.69
2018-03-28T11:05:19.327Z,14.56
2018-03-28T11:07:51.570Z,14.43
2018-03-28T11:10:21.815Z,14.90
2018-03-28T11:12:51.850Z,15.13
2018-03-28T11:15:21.046Z,15.60
2018-03-28T11:17:52.940Z,16.28
2018-03-28T11:20:25.195Z,16.72
2018-03-28T11:22:54.934Z,16.08
2018-03-28T11:25:26.195Z,16.59
2018-03-28T11:30:18.238Z,16.54
2018-03-28T11:32:48.032Z,16.70
2018-03-28T11:35:17.265Z,16.85
2018-03-28T11:37:46.717Z,17.08
2018-03-28T11:40:18.714Z,17.17
2018-03-28T11:42:48.938Z,17.24
2018-03-28T11:45:18.784Z,17.23
2018-03-28T11:47:48.132Z,17.31
2018-03-28T11:50:17.240Z,16.88
2018-03-28T11:52:46.194Z,17.10
2018-03-28T11:55:15.227Z,17.56
2018-03-28T11:57:44.159Z,17.07
2018-03-28T12:00:13.229Z,16.37
2018-03-28T12:02:42.658Z,15.95
2018-03-28T12:05:11.597Z,15.66
2018-03-28T12:07:40.522Z,15.41
2018-03-28T12:10:09.552Z,15.41
2018-03-28T12:12:38.647Z,15.30
2018-03-28T12:15:07.855Z,15.22
2018-03-28T12:17:37.085Z,15.15
2018-03-28T12:20:07.276Z,14.94
2018-03-28T12:22:36.777Z,14.92
2018-03-28T12:25:05.764Z,14.78
2018-03-28T12:27:37.617Z,14.69
2018-03-28T12:30:07.975Z,14.55
2018-03-28T12:32:36.904Z,14.32
2018-03-28T12:35:05.898Z,14.10
2018-03-28T12:37:35.050Z,14.04
2018-03-28T12:40:04.993Z,14.02
2018-03-28T12:42:33.904Z,13.83
2018-03-28T12:45:03.723Z,13.86
2018-03-28T12:47:32.661Z,13.75
2018-03-28T12:50:03.418Z,13.63
2018-03-28T12:52:32.272Z,13.40
2018-03-28T12:55:01.378Z,13.34
2018-03-28T12:57:30.703Z,13.31
2018-03-28T12:59:59.683Z,13.39
2018-03-28T13:02:28.760Z,13.46
2018-03-28T13:04:58.001Z,13.44
2018-03-28T13:07:27.008Z,13.37
2018-03-28T13:09:56.030Z,13.36
2018-03-28T13:12:25.414Z,13.30
2018-03-28T13:14:54.362Z,13.34
2018-03-28T13:17:23.347Z,13.35
2018-03-28T13:19:52.548Z,13.27
2018-03-28T13:22:22.004Z,13.15
2018-03-28T13:24:50.948Z,13.14
2018-03-28T13:27:20.206Z,13.00
2018-03-28T13:29:49.146Z,12.92
2018-03-28T13:32:18.150Z,12.82
2018-03-28T13:34:47.111Z,12.74
2018-03-28T13:37:16.219Z,12.72
2018-03-28T13:39:46.111Z,12.80
2018-03-28T13:42:15.167Z,12.73
2018-03-28T13:44:44.156Z,12.55
2018-03-28T13:47:13.449Z,12.64
2018-03-28T13:49:42.767Z,12.59
2018-03-28T13:52:11.682Z,12.65
2018-03-28T13:54:40.927Z,12.72
2018-03-28T13:57:09.877Z,12.58
2018-03-28T13:59:38.824Z,12.56
2018-03-28T14:02:08.058Z,12.54
2018-03-28T14:04:36.988Z,12.62
2018-03-28T14:07:06.044Z,12.71
2018-03-28T14:09:35.294Z,12.76
2018-03-28T14:12:05.437Z,12.79
2018-03-28T14:14:34.368Z,12.78
2018-03-28T14:17:03.342Z,12.80
2018-03-28T14:19:32.197Z,12.85
2018-03-28T14:22:03.047Z,12.80
2018-03-28T14:24:31.963Z,12.68
2018-03-28T14:27:00.827Z,12.70
2018-03-28T14:29:30.030Z,12.73
2018-03-28T14:31:58.982Z,12.71
2018-03-28T14:34:28.001Z,12.75
2018-03-28T14:36:57.205Z,12.62
2018-03-28T14:39:26.113Z,12.63
2018-03-28T14:41:55.055Z,12.70
2018-03-28T14:44:24.246Z,12.75
2018-03-28T14:46:53.168Z,12.77
2018-03-28T14:49:22.113Z,12.80
2018-03-28T14:51:51.355Z,12.76
2018-03-28T14:54:20.583Z,12.76
2018-03-28T14:56:49.558Z,12.67
2018-03-28T14:59:18.491Z,12.58
2018-03-28T15:01:47.420Z,12.62
2018-03-28T15:04:16.755Z,12.52
2018-03-28T15:06:45.732Z,12.58
2018-03-28T15:09:14.737Z,12.58
2018-03-28T15:11:44.005Z,12.61
2018-03-28T15:14:12.919Z,12.66
2018-03-28T15:16:42.620Z,12.74
2018-03-28T15:19:12.149Z,12.71
2018-03-28T15:21:41.076Z,12.73
2018-03-28T15:24:10.112Z,12.74
2018-03-28T15:26:39.321Z,12.69
2018-03-28T15:29:08.209Z,12.68
2018-03-28T15:31:37.094Z,12.61
2018-03-28T15:34:06.253Z,12.64
2018-03-28T15:36:35.168Z,12.67
2018-03-28T15:39:05.896Z,12.58
2018-03-28T15:41:35.222Z,12.58
2018-03-28T15:44:05.058Z,12.55
2018-03-28T15:46:34.264Z,12.56
2018-03-28T15:49:03.184Z,12.56
2018-03-28T15:51:32.067Z,12.50
2018-03-28T15:54:03.369Z,12.53
2018-03-28T15:56:32.298Z,12.48
2018-03-28T15:59:01.481Z,12.42
2018-03-28T16:01:30.741Z,12.41
2018-03-28T16:03:59.678Z,12.43
2018-03-28T16:06:28.590Z,12.49
2018-03-28T16:08:57.784Z,12.52
2018-03-28T16:11:27.357Z,12.56
2018-03-28T16:13:57.115Z,12.55
2018-03-28T16:16:26.322Z,12.56
2018-03-28T16:18:55.271Z,12.61
2018-03-28T16:21:24.780Z,12.66
2018-03-28T16:23:53.881Z,12.65
2018-03-28T16:26:23.442Z,12.71
2018-03-28T16:28:52.707Z,12.74
2018-03-28T16:31:21.636Z,12.76
2018-03-28T16:33:50.566Z,12.76
2018-03-28T16:36:19.760Z,12.78
2018-03-28T16:38:48.699Z,12.79
2018-03-28T16:41:17.786Z,12.75
2018-03-28T16:43:46.995Z,12.67
2018-03-28T16:46:15.936Z,12.67
2018-03-28T16:48:44.930Z,12.66
2018-03-28T16:51:14.845Z,12.70
2018-03-28T16:53:43.779Z,12.70
2018-03-28T16:56:12.693Z,12.67
2018-03-28T16:58:41.613Z,12.67
2018-03-28T17:01:10.600Z,12.64
2018-03-28T17:03:39.581Z,12.67
2018-03-28T17:06:08.475Z,12.65
2018-03-28T17:08:37.390Z,12.66
2018-03-28T17:11:06.636Z,12.65
2018-03-28T17:13:35.581Z,12.66
2018-03-28T17:16:05.583Z,12.67
2018-03-28T17:18:34.798Z,12.68
2018-03-28T17:21:04.135Z,12.59
2018-03-28T17:23:33.039Z,12.58
2018-03-28T17:26:02.823Z,12.65
2018-03-28T17:28:31.768Z,12.65
2018-03-28T17:31:00.684Z,12.67
2018-03-28T17:33:29.902Z,12.66
2018-03-28T17:35:58.792Z,12.68
2018-03-28T17:39:58.324Z,12.67
2018-03-28T17:42:27.204Z,12.67
2018-03-28T17:44:56.126Z,12.70
2018-03-28T17:47:25.429Z,12.74
2018-03-28T17:49:54.372Z,12.65
2018-03-28T17:52:23.272Z,12.72
2018-03-28T17:54:52.332Z,12.66
2018-03-28T17:57:21.304Z,12.64
2018-03-28T17:59:50.246Z,12.67
2018-03-28T18:02:19.170Z,12.67
2018-03-28T18:04:48.115Z,12.71
2018-03-28T18:07:17.424Z,12.76
2018-03-28T18:09:46.354Z,12.76
2018-03-28T18:12:15.485Z,12.75
2018-03-28T18:14:44.892Z,12.78
2018-03-28T18:17:13.865Z,12.77
2018-03-28T18:19:42.850Z,12.78
2018-03-28T18:22:11.815Z,12.77
2018-03-28T18:24:41.087Z,12.76
2018-03-28T18:27:10.055Z,12.71
2018-03-28T18:29:39.223Z,12.69
2018-03-28T18:32:08.028Z,12.69
2018-03-28T18:34:36.839Z,12.66
2018-03-28T18:37:05.866Z,12.60
2018-03-28T18:39:34.840Z,12.57
2018-03-28T18:42:04.552Z,12.60
2018-03-28T18:44:33.474Z,12.56
2018-03-28T18:47:02.496Z,12.61
2018-03-28T18:49:33.012Z,12.66
2018-03-28T18:52:02.328Z,12.73
2018-03-28T18:54:31.258Z,12.75
2018-03-28T18:57:00.551Z,12.76
2018-03-28T18:59:29.451Z,12.78
2018-03-28T19:01:58.339Z,12.81
2018-03-28T19:04:27.540Z,12.80
2018-03-28T19:06:56.383Z,12.79
2018-03-28T19:09:25.748Z,12.76
2018-03-28T19:11:55.079Z,12.80
2018-03-28T19:14:24.004Z,12.78
2018-03-28T19:16:52.979Z,12.75
2018-03-28T19:19:22.160Z,12.77
2018-03-28T19:21:51.077Z,12.71
2018-03-28T19:24:19.994Z,12.69
2018-03-28T19:26:48.934Z,12.70
2018-03-28T19:29:17.846Z,12.74
2018-03-28T19:31:47.353Z,12.76
2018-03-28T19:34:17.023Z,12.82
2018-03-28T19:36:45.881Z,12.84
2018-03-28T19:39:15.163Z,12.89
2018-03-28T19:41:44.138Z,12.88
2018-03-28T19:44:13.017Z,12.90
2018-03-28T19:46:41.969Z,12.91
2018-03-28T19:49:10.891Z,12.94
2018-03-28T19:51:40.135Z,12.93
2018-03-28T19:54:09.168Z,12.97
2018-03-28T19:56:38.075Z,12.92
2018-03-28T19:59:07.092Z,12.90
2018-03-28T20:01:37.435Z,12.95
2018-03-28T20:04:06.384Z,12.89
2018-03-28T20:06:35.302Z,12.77
2018-03-28T20:09:05.959Z,12.82
2018-03-28T20:11:34.965Z,12.82
2018-03-28T20:14:05.467Z,12.80
2018-03-28T20:16:34.381Z,12.78
2018-03-28T20:19:03.828Z,12.71
2018-03-28T20:21:32.801Z,12.73
2018-03-28T20:24:03.465Z,12.69
2018-03-28T20:26:32.362Z,12.63
2018-03-28T20:29:02.001Z,12.64
2018-03-28T20:31:30.960Z,12.61
2018-03-28T20:34:00.131Z,12.53
2018-03-28T20:36:29.474Z,12.52
2018-03-28T20:38:58.424Z,12.42
2018-03-28T20:41:27.443Z,12.42
2018-03-28T20:43:56.901Z,12.39
2018-03-28T20:46:25.991Z,12.31
2018-03-28T20:48:55.134Z,12.25
2018-03-28T20:51:24.165Z,12.18
2018-03-28T20:53:53.067Z,12.15
2018-03-28T20:56:22.423Z,11.97
2018-03-28T20:58:51.681Z,11.93
2018-03-28T21:01:20.971Z,11.88
2018-03-28T21:03:50.273Z,11.80
2018-03-28T21:06:19.218Z,11.77
2018-03-28T21:08:48.175Z,11.74
2018-03-28T21:11:17.615Z,11.65
2018-03-28T21:13:46.503Z,11.57
2018-03-28T21:16:15.591Z,11.59
2018-03-28T21:18:44.900Z,11.46
2018-03-28T21:21:13.878Z,11.41
2018-03-28T21:23:42.784Z,11.30
2018-03-28T21:26:12.520Z,11.29
2018-03-28T21:28:41.421Z,11.27
2018-03-28T21:31:10.328Z,11.24
2018-03-28T21:33:39.252Z,11.24
2018-03-28T21:36:08.209Z,11.24
2018-03-28T21:38:37.458Z,11.23
2018-03-28T21:41:06.381Z,11.17
2018-03-28T21:43:35.326Z,11.16
2018-03-28T21:46:05.153Z,11.15
2018-03-28T21:48:34.157Z,11.19
2018-03-28T21:51:03.381Z,11.10
2018-03-28T21:53:32.604Z,11.04
2018-03-28T21:56:01.529Z,10.98
2018-03-28T21:58:30.448Z,11.00
2018-03-28T22:00:59.651Z,11.03
2018-03-28T22:03:28.655Z,11.05
2018-03-28T22:05:57.646Z,11.11
2018-03-28T22:08:27.000Z,11.09
2018-03-28T22:10:56.976Z,11.02
2018-03-28T22:13:26.728Z,11.05
2018-03-28T22:15:55.594Z,11.05
2018-03-28T22:18:24.644Z,11.11
2018-03-28T22:20:54.347Z,11.16
2018-03-28T22:23:23.336Z,11.13
2018-03-28T22:25:52.301Z,11.12
2018-03-28T22:28:22.007Z,11.14
2018-03-28T22:30:51.294Z,11.06
2018-03-28T22:33:20.613Z,10.92
2018-03-28T22:35:50.217Z,10.93
2018-03-28T22:38:19.189Z,10.97
2018-03-28T22:40:48.132Z,10.97
2018-03-28T22:43:18.232Z,10.99
2018-03-28T22:45:47.192Z,10.95
2018-03-28T22:48:16.134Z,10.73
2018-03-28T22:50:45.622Z,10.72
2018-03-28T22:53:14.533Z,10.67
2018-03-28T22:55:43.472Z,10.63
2018-03-28T22:58:12.410Z,10.59
2018-03-28T23:00:42.221Z,10.49
2018-03-28T23:03:11.432Z,10.47
2018-03-28T23:05:40.352Z,10.42
2018-03-28T23:08:09.249Z,10.47
2018-03-28T23:10:38.635Z,10.39
2018-03-28T23:13:07.589Z,10.37
2018-03-28T23:15:36.501Z,10.27
2018-03-28T23:18:07.368Z,10.21
2018-03-28T23:20:36.255Z,10.07
2018-03-28T23:23:05.144Z,10.05
2018-03-28T23:25:34.075Z,10.05
2018-03-28T23:28:04.183Z,10.08
2018-03-28T23:30:33.178Z,9.99
2018-03-28T23:33:02.368Z,9.96
2018-03-28T23:35:31.283Z,9.91
2018-03-28T23:38:01.365Z,9.91
2018-03-28T23:40:30.268Z,9.92
2018-03-28T23:42:59.208Z,9.93
2018-03-28T23:45:29.450Z,9.96
2018-03-28T23:47:58.370Z,9.93
2018-03-28T23:50:27.343Z,9.99
2018-03-28T23:52:56.794Z,10.00
2018-03-28T23:55:25.758Z,9.96
2018-03-28T23:57:54.724Z,9.96
